sensor_id;sensor_type;location;lat;lon;timestamp;pressure;altitude;pressure_sealevel;temperature;humidity
48404;BME280;34202;52.536;6.042;2023-07-30T00:01:51;100877.17;;;15.96;88.41
48404;BME280;34202;52.536;6.042;2023-07-30T00:06:52;100874.95;;;15.92;88.71
48404;BME280;34202;52.536;6.042;2023-07-30T00:11:52;100873.07;;;15.89;89.05
48404;BME280;34202;52.536;6.042;2023-07-30T00:16:52;100878.56;;;15.86;89.23
48404;BME280;34202;52.536;6.042;2023-07-30T00:21:53;100879.13;;;15.82;89.39
48404;BME280;34202;52.536;6.042;2023-07-30T00:26:53;100878.67;;;15.78;89.53
48404;BME280;34202;52.536;6.042;2023-07-30T00:31:54;100876.25;;;15.75;89.66
48404;BME280;34202;52.536;6.042;2023-07-30T00:36:54;100880.86;;;15.70;89.86
48404;BME280;34202;52.536;6.042;2023-07-30T00:41:54;100880.92;;;15.64;90.20
48404;BME280;34202;52.536;6.042;2023-07-30T00:46:55;100885.71;;;15.61;90.33
48404;BME280;34202;52.536;6.042;2023-07-30T00:51:55;100882.46;;;15.55;90.64
48404;BME280;34202;52.536;6.042;2023-07-30T00:56:56;100874.60;;;15.51;90.90
48404;BME280;34202;52.536;6.042;2023-07-30T01:01:57;100880.44;;;15.49;91.10
48404;BME280;34202;52.536;6.042;2023-07-30T01:06:59;100884.52;;;15.45;91.23
48404;BME280;34202;52.536;6.042;2023-07-30T01:12:00;100882.25;;;15.43;91.49
48404;BME280;34202;52.536;6.042;2023-07-30T01:17:01;100886.69;;;15.39;91.67
48404;BME280;34202;52.536;6.042;2023-07-30T01:22:02;100887.96;;;15.36;91.87
48404;BME280;34202;52.536;6.042;2023-07-30T01:27:05;100894.14;;;15.32;92.03
48404;BME280;34202;52.536;6.042;2023-07-30T01:32:08;100893.48;;;15.28;92.23
48404;BME280;34202;52.536;6.042;2023-07-30T01:37:12;100898.43;;;15.25;92.32
48404;BME280;34202;52.536;6.042;2023-07-30T01:42:14;100896.55;;;15.22;92.55
48404;BME280;34202;52.536;6.042;2023-07-30T01:47:15;100901.84;;;15.18;92.66
48404;BME280;34202;52.536;6.042;2023-07-30T01:52:15;100901.36;;;15.14;92.74
48404;BME280;34202;52.536;6.042;2023-07-30T01:57:16;100900.89;;;15.09;92.97
48404;BME280;34202;52.536;6.042;2023-07-30T02:02:16;100901.45;;;15.07;93.20
48404;BME280;34202;52.536;6.042;2023-07-30T02:07:16;100900.76;;;15.05;93.47
48404;BME280;34202;52.536;6.042;2023-07-30T02:12:17;100897.81;;;15.03;93.85
48404;BME280;34202;52.536;6.042;2023-07-30T02:17:17;100901.48;;;15.02;94.15
48404;BME280;34202;52.536;6.042;2023-07-30T02:22:18;100902.54;;;15.02;94.46
48404;BME280;34202;52.536;6.042;2023-07-30T02:27:18;100905.00;;;15.02;94.65
48404;BME280;34202;52.536;6.042;2023-07-30T02:32:18;100905.86;;;15.03;94.90
48404;BME280;34202;52.536;6.042;2023-07-30T02:37:19;100905.00;;;15.03;95.03
48404;BME280;34202;52.536;6.042;2023-07-30T02:42:19;100901.14;;;15.02;95.17
48404;BME280;34202;52.536;6.042;2023-07-30T02:47:19;100900.10;;;15.01;95.28
48404;BME280;34202;52.536;6.042;2023-07-30T02:52:20;100902.03;;;15.00;95.39
48404;BME280;34202;52.536;6.042;2023-07-30T02:57:20;100900.48;;;14.99;95.56
48404;BME280;34202;52.536;6.042;2023-07-30T03:02:20;100897.32;;;14.99;95.84
48404;BME280;34202;52.536;6.042;2023-07-30T03:07:21;100901.89;;;14.98;96.01
48404;BME280;34202;52.536;6.042;2023-07-30T03:12:21;100904.35;;;14.97;96.17
48404;BME280;34202;52.536;6.042;2023-07-30T03:17:22;100905.59;;;14.96;96.43
48404;BME280;34202;52.536;6.042;2023-07-30T03:22:22;100903.66;;;14.95;96.75
48404;BME280;34202;52.536;6.042;2023-07-30T03:27:23;100903.51;;;14.94;97.08
48404;BME280;34202;52.536;6.042;2023-07-30T03:32:23;100904.56;;;14.93;97.37
48404;BME280;34202;52.536;6.042;2023-07-30T03:37:24;100906.67;;;14.92;97.70
48404;BME280;34202;52.536;6.042;2023-07-30T03:42:25;100902.48;;;14.92;97.97
48404;BME280;34202;52.536;6.042;2023-07-30T03:47:25;100897.41;;;14.90;98.14
48404;BME280;34202;52.536;6.042;2023-07-30T03:52:25;100896.55;;;14.89;98.41
48404;BME280;34202;52.536;6.042;2023-07-30T03:57:26;100897.45;;;14.88;98.62
48404;BME280;34202;52.536;6.042;2023-07-30T04:02:26;100905.52;;;14.86;99.00
48404;BME280;34202;52.536;6.042;2023-07-30T04:07:26;100908.66;;;14.87;99.27
48404;BME280;34202;52.536;6.042;2023-07-30T04:12:27;100906.55;;;14.87;99.56
48404;BME280;34202;52.536;6.042;2023-07-30T04:17:27;100908.63;;;14.90;99.88
48404;BME280;34202;52.536;6.042;2023-07-30T04:22:28;100905.10;;;14.92;100.00
48404;BME280;34202;52.536;6.042;2023-07-30T04:27:28;100912.44;;;14.95;100.00
48404;BME280;34202;52.536;6.042;2023-07-30T04:32:28;100911.35;;;14.98;100.00
48404;BME280;34202;52.536;6.042;2023-07-30T04:37:29;100913.41;;;15.01;100.00
48404;BME280;34202;52.536;6.042;2023-07-30T04:42:29;100916.89;;;15.06;100.00
48404;BME280;34202;52.536;6.042;2023-07-30T04:47:30;100913.16;;;15.10;100.00
48404;BME280;34202;52.536;6.042;2023-07-30T04:52:30;100917.30;;;15.15;100.00
48404;BME280;34202;52.536;6.042;2023-07-30T04:57:31;100922.52;;;15.20;100.00
48404;BME280;34202;52.536;6.042;2023-07-30T05:02:31;100920.70;;;15.25;100.00
48404;BME280;34202;52.536;6.042;2023-07-30T05:07:31;100926.79;;;15.30;100.00
48404;BME280;34202;52.536;6.042;2023-07-30T05:12:32;100927.60;;;15.35;100.00
48404;BME280;34202;52.536;6.042;2023-07-30T05:17:33;100932.09;;;15.41;100.00
48404;BME280;34202;52.536;6.042;2023-07-30T05:22:33;100938.00;;;15.46;100.00
48404;BME280;34202;52.536;6.042;2023-07-30T05:27:35;100940.91;;;15.51;100.00
48404;BME280;34202;52.536;6.042;2023-07-30T05:32:35;100944.52;;;15.57;100.00
48404;BME280;34202;52.536;6.042;2023-07-30T05:37:36;100938.64;;;15.63;100.00
48404;BME280;34202;52.536;6.042;2023-07-30T05:42:37;100945.07;;;15.70;100.00
48404;BME280;34202;52.536;6.042;2023-07-30T05:47:37;100947.63;;;15.78;100.00
48404;BME280;34202;52.536;6.042;2023-07-30T05:52:38;100952.48;;;15.84;100.00
48404;BME280;34202;52.536;6.042;2023-07-30T05:57:38;100953.27;;;15.90;100.00
48404;BME280;34202;52.536;6.042;2023-07-30T06:02:38;100955.29;;;15.96;100.00
48404;BME280;34202;52.536;6.042;2023-07-30T06:07:39;100953.09;;;16.03;100.00
48404;BME280;34202;52.536;6.042;2023-07-30T06:12:39;100952.05;;;16.13;100.00
48404;BME280;34202;52.536;6.042;2023-07-30T06:17:40;100950.46;;;16.26;100.00
48404;BME280;34202;52.536;6.042;2023-07-30T06:22:40;100949.02;;;16.40;100.00
48404;BME280;34202;52.536;6.042;2023-07-30T06:27:40;100948.05;;;16.58;100.00
48404;BME280;34202;52.536;6.042;2023-07-30T06:32:41;100949.17;;;16.74;100.00
48404;BME280;34202;52.536;6.042;2023-07-30T06:37:41;100950.54;;;16.88;100.00
48404;BME280;34202;52.536;6.042;2023-07-30T06:42:42;100950.64;;;17.03;100.00
48404;BME280;34202;52.536;6.042;2023-07-30T06:47:42;100948.82;;;17.15;100.00
48404;BME280;34202;52.536;6.042;2023-07-30T06:52:42;100953.52;;;17.28;100.00
48404;BME280;34202;52.536;6.042;2023-07-30T06:57:43;100945.02;;;17.39;100.00
48404;BME280;34202;52.536;6.042;2023-07-30T07:02:43;100950.45;;;17.50;100.00
48404;BME280;34202;52.536;6.042;2023-07-30T07:07:44;100954.32;;;17.58;100.00
48404;BME280;34202;52.536;6.042;2023-07-30T07:12:45;100956.83;;;17.65;100.00
48404;BME280;34202;52.536;6.042;2023-07-30T07:17:45;100957.35;;;17.73;100.00
48404;BME280;34202;52.536;6.042;2023-07-30T07:22:46;100952.95;;;17.81;100.00
48404;BME280;34202;52.536;6.042;2023-07-30T07:27:46;100959.11;;;17.91;100.00
48404;BME280;34202;52.536;6.042;2023-07-30T07:32:47;100956.47;;;17.99;100.00
48404;BME280;34202;52.536;6.042;2023-07-30T07:37:50;100961.80;;;18.05;100.00
48404;BME280;34202;52.536;6.042;2023-07-30T07:42:51;100965.39;;;18.10;100.00
48404;BME280;34202;52.536;6.042;2023-07-30T07:47:51;100967.27;;;18.20;100.00
48404;BME280;34202;52.536;6.042;2023-07-30T07:52:51;100967.40;;;18.30;100.00
48404;BME280;34202;52.536;6.042;2023-07-30T07:57:52;100968.85;;;18.43;100.00
48404;BME280;34202;52.536;6.042;2023-07-30T08:02:52;100969.44;;;18.56;99.87
48404;BME280;34202;52.536;6.042;2023-07-30T08:07:53;100967.73;;;18.68;99.34
48404;BME280;34202;52.536;6.042;2023-07-30T08:12:53;100974.19;;;18.78;98.40
48404;BME280;34202;52.536;6.042;2023-07-30T08:17:53;100971.23;;;18.84;97.88
48404;BME280;34202;52.536;6.042;2023-07-30T08:22:54;100965.89;;;18.86;96.72
48404;BME280;34202;52.536;6.042;2023-07-30T08:27:54;100963.70;;;18.82;95.79
48404;BME280;34202;52.536;6.042;2023-07-30T08:32:54;100956.19;;;18.78;95.68
48404;BME280;34202;52.536;6.042;2023-07-30T08:37:55;100950.58;;;18.77;96.08
48404;BME280;34202;52.536;6.042;2023-07-30T08:42:55;100945.70;;;18.74;95.35
48404;BME280;34202;52.536;6.042;2023-07-30T08:47:56;100949.26;;;18.66;95.64
48404;BME280;34202;52.536;6.042;2023-07-30T08:52:58;100955.84;;;18.64;95.80
48404;BME280;34202;52.536;6.042;2023-07-30T08:58:01;100959.34;;;18.64;96.76
48404;BME280;34202;52.536;6.042;2023-07-30T09:03:03;100962.02;;;18.70;96.49
48404;BME280;34202;52.536;6.042;2023-07-30T09:08:04;100963.84;;;18.68;95.20
48404;BME280;34202;52.536;6.042;2023-07-30T09:13:04;100966.72;;;18.65;95.04
48404;BME280;34202;52.536;6.042;2023-07-30T09:18:06;100966.71;;;18.66;95.35
48404;BME280;34202;52.536;6.042;2023-07-30T09:23:09;100978.14;;;18.67;95.61
48404;BME280;34202;52.536;6.042;2023-07-30T09:28:10;100979.33;;;18.69;95.65
48404;BME280;34202;52.536;6.042;2023-07-30T09:33:18;100990.61;;;18.76;95.71
48404;BME280;34202;52.536;6.042;2023-07-30T09:38:19;100993.34;;;18.88;96.14
48404;BME280;34202;52.536;6.042;2023-07-30T09:43:20;100994.20;;;19.10;97.04
48404;BME280;34202;52.536;6.042;2023-07-30T09:48:20;100999.25;;;19.45;97.66
48404;BME280;34202;52.536;6.042;2023-07-30T09:53:22;101007.63;;;19.67;96.48
48404;BME280;34202;52.536;6.042;2023-07-30T09:58:24;101011.23;;;19.78;94.14
48404;BME280;34202;52.536;6.042;2023-07-30T10:03:25;101018.74;;;19.81;92.72
48404;BME280;34202;52.536;6.042;2023-07-30T10:08:27;101018.04;;;19.87;92.54
48404;BME280;34202;52.536;6.042;2023-07-30T10:13:30;101025.89;;;19.97;92.23
48404;BME280;34202;52.536;6.042;2023-07-30T10:18:38;101034.84;;;20.16;92.94
48404;BME280;34202;52.536;6.042;2023-07-30T10:23:50;101035.36;;;20.40;92.10
48404;BME280;34202;52.536;6.042;2023-07-30T10:29:16;101038.90;;;20.69;91.88
48404;BME280;34202;52.536;6.042;2023-07-30T10:34:17;101043.36;;;21.00;90.92
48404;BME280;34202;52.536;6.042;2023-07-30T10:39:20;101045.61;;;21.23;89.96
48404;BME280;34202;52.536;6.042;2023-07-30T10:44:23;101044.53;;;21.55;88.91
48404;BME280;34202;52.536;6.042;2023-07-30T10:49:25;101045.38;;;21.80;87.26
48404;BME280;34202;52.536;6.042;2023-07-30T10:54:25;101051.20;;;21.95;85.80
48404;BME280;34202;52.536;6.042;2023-07-30T10:59:26;101046.73;;;22.11;83.13
48404;BME280;34202;52.536;6.042;2023-07-30T11:04:35;101046.06;;;22.24;81.35
48404;BME280;34202;52.536;6.042;2023-07-30T11:09:36;101050.77;;;22.40;80.21
48404;BME280;34202;52.536;6.042;2023-07-30T11:14:36;101050.20;;;22.54;78.59
48404;BME280;34202;52.536;6.042;2023-07-30T11:19:42;101047.89;;;22.68;77.14
48404;BME280;34202;52.536;6.042;2023-07-30T11:24:43;101054.44;;;22.81;76.00
48404;BME280;34202;52.536;6.042;2023-07-30T11:29:53;101057.56;;;22.96;74.27
48404;BME280;34202;52.536;6.042;2023-07-30T11:34:54;101053.11;;;23.00;71.88
48404;BME280;34202;52.536;6.042;2023-07-30T11:39:55;101065.92;;;22.96;70.79
48404;BME280;34202;52.536;6.042;2023-07-30T11:44:55;101072.80;;;22.92;70.34
48404;BME280;34202;52.536;6.042;2023-07-30T11:49:57;101070.73;;;23.04;70.04
48404;BME280;34202;52.536;6.042;2023-07-30T11:55:02;101080.78;;;23.01;68.41
48404;BME280;34202;52.536;6.042;2023-07-30T12:00:03;101086.11;;;22.92;67.81
48404;BME280;34202;52.536;6.042;2023-07-30T12:05:10;101087.64;;;22.89;68.18
48404;BME280;34202;52.536;6.042;2023-07-30T12:10:13;101089.37;;;23.00;68.37
48404;BME280;34202;52.536;6.042;2023-07-30T12:15:13;101086.95;;;23.07;67.07
48404;BME280;34202;52.536;6.042;2023-07-30T12:20:14;101091.39;;;22.98;66.14
48404;BME280;34202;52.536;6.042;2023-07-30T12:25:14;101094.39;;;22.89;65.86
48404;BME280;34202;52.536;6.042;2023-07-30T12:30:15;101100.05;;;22.81;65.53
48404;BME280;34202;52.536;6.042;2023-07-30T12:35:15;101101.27;;;22.77;66.13
48404;BME280;34202;52.536;6.042;2023-07-30T12:40:16;101102.52;;;22.77;66.31
48404;BME280;34202;52.536;6.042;2023-07-30T12:45:16;101104.15;;;22.81;66.69
48404;BME280;34202;52.536;6.042;2023-07-30T12:50:17;101102.58;;;22.80;66.42
48404;BME280;34202;52.536;6.042;2023-07-30T12:55:17;101095.08;;;22.81;66.73
48404;BME280;34202;52.536;6.042;2023-07-30T13:00:17;101103.18;;;22.87;66.76
48404;BME280;34202;52.536;6.042;2023-07-30T13:05:18;101104.11;;;22.90;66.94
48404;BME280;34202;52.536;6.042;2023-07-30T13:10:18;101109.36;;;23.01;66.68
48404;BME280;34202;52.536;6.042;2023-07-30T13:15:19;101108.55;;;23.04;65.97
48404;BME280;34202;52.536;6.042;2023-07-30T13:20:19;101111.55;;;23.09;66.09
48404;BME280;34202;52.536;6.042;2023-07-30T13:25:20;101116.94;;;23.07;65.14
48404;BME280;34202;52.536;6.042;2023-07-30T13:30:20;101113.95;;;22.97;64.64
48404;BME280;34202;52.536;6.042;2023-07-30T13:35:21;101116.86;;;22.91;64.64
48404;BME280;34202;52.536;6.042;2023-07-30T13:40:22;101112.00;;;22.84;64.28
48404;BME280;34202;52.536;6.042;2023-07-30T13:45:22;101118.16;;;22.76;63.78
48404;BME280;34202;52.536;6.042;2023-07-30T13:50:23;101116.89;;;22.63;63.56
48404;BME280;34202;52.536;6.042;2023-07-30T13:55:23;101125.68;;;22.47;63.06
48404;BME280;34202;52.536;6.042;2023-07-30T14:00:23;101124.66;;;22.27;63.07
48404;BME280;34202;52.536;6.042;2023-07-30T14:05:24;101123.21;;;22.22;63.68
48404;BME280;34202;52.536;6.042;2023-07-30T14:10:24;101133.92;;;22.15;63.70
48404;BME280;34202;52.536;6.042;2023-07-30T14:15:25;101128.96;;;22.20;64.46
48404;BME280;34202;52.536;6.042;2023-07-30T14:20:26;101129.83;;;22.21;64.34
48404;BME280;34202;52.536;6.042;2023-07-30T14:25:26;101130.61;;;22.25;64.72
48404;BME280;34202;52.536;6.042;2023-07-30T14:30:27;101132.43;;;22.33;63.89
48404;BME280;34202;52.536;6.042;2023-07-30T14:35:28;101134.23;;;22.37;62.37
48404;BME280;34202;52.536;6.042;2023-07-30T14:40:29;101139.43;;;22.35;62.23
48404;BME280;34202;52.536;6.042;2023-07-30T14:45:29;101140.64;;;22.31;61.86
48404;BME280;34202;52.536;6.042;2023-07-30T14:50:30;101136.70;;;22.27;61.32
48404;BME280;34202;52.536;6.042;2023-07-30T14:55:30;101138.23;;;22.34;60.92
48404;BME280;34202;52.536;6.042;2023-07-30T15:00:31;101137.77;;;22.41;60.87
48404;BME280;34202;52.536;6.042;2023-07-30T15:05:32;101135.20;;;22.49;60.77
48404;BME280;34202;52.536;6.042;2023-07-30T15:10:34;101139.84;;;22.52;60.89
48404;BME280;34202;52.536;6.042;2023-07-30T15:15:34;101141.40;;;22.49;60.25
48404;BME280;34202;52.536;6.042;2023-07-30T15:20:34;101137.88;;;22.43;60.70
48404;BME280;34202;52.536;6.042;2023-07-30T15:25:35;101136.15;;;22.47;61.44
48404;BME280;34202;52.536;6.042;2023-07-30T15:30:36;101134.18;;;22.52;61.44
48404;BME280;34202;52.536;6.042;2023-07-30T15:35:37;101139.86;;;22.52;61.49
48404;BME280;34202;52.536;6.042;2023-07-30T15:40:38;101140.04;;;22.47;61.44
48404;BME280;34202;52.536;6.042;2023-07-30T15:45:38;101141.96;;;22.44;62.05
48404;BME280;34202;52.536;6.042;2023-07-30T15:50:43;101133.82;;;22.38;61.98
48404;BME280;34202;52.536;6.042;2023-07-30T15:55:44;101134.25;;;22.26;61.48
48404;BME280;34202;52.536;6.042;2023-07-30T16:00:44;101141.27;;;22.13;61.10
48404;BME280;34202;52.536;6.042;2023-07-30T16:05:48;101149.21;;;22.05;61.80
48404;BME280;34202;52.536;6.042;2023-07-30T16:10:48;101141.45;;;21.99;62.26
48404;BME280;34202;52.536;6.042;2023-07-30T16:15:49;101140.34;;;21.90;62.07
48404;BME280;34202;52.536;6.042;2023-07-30T16:20:59;101143.56;;;21.84;62.04
48404;BME280;34202;52.536;6.042;2023-07-30T16:26:00;101151.55;;;21.74;61.53
48404;BME280;34202;52.536;6.042;2023-07-30T16:31:01;101158.00;;;21.61;61.47
48404;BME280;34202;52.536;6.042;2023-07-30T16:36:02;101149.41;;;21.54;61.96
48404;BME280;34202;52.536;6.042;2023-07-30T16:41:04;101145.67;;;21.49;62.25
48404;BME280;34202;52.536;6.042;2023-07-30T16:46:04;101148.36;;;21.42;62.00
48404;BME280;34202;52.536;6.042;2023-07-30T16:51:05;101145.29;;;21.33;62.13
48404;BME280;34202;52.536;6.042;2023-07-30T16:56:12;101141.89;;;21.28;62.55
48404;BME280;34202;52.536;6.042;2023-07-30T17:01:13;101129.44;;;21.25;62.94
48404;BME280;34202;52.536;6.042;2023-07-30T17:06:14;101131.86;;;21.21;63.14
48404;BME280;34202;52.536;6.042;2023-07-30T17:11:14;101142.83;;;21.16;63.39
48404;BME280;34202;52.536;6.042;2023-07-30T17:16:15;101143.05;;;21.10;63.89
48404;BME280;34202;52.536;6.042;2023-07-30T17:21:16;101141.09;;;21.04;64.37
48404;BME280;34202;52.536;6.042;2023-07-30T17:26:17;101135.39;;;20.99;64.89
48404;BME280;34202;52.536;6.042;2023-07-30T17:31:17;101131.29;;;20.95;65.36
48404;BME280;34202;52.536;6.042;2023-07-30T17:36:17;101127.57;;;20.90;65.70
48404;BME280;34202;52.536;6.042;2023-07-30T17:41:18;101130.57;;;20.84;65.98
48404;BME280;34202;52.536;6.042;2023-07-30T17:46:18;101136.06;;;20.78;66.56
48404;BME280;34202;52.536;6.042;2023-07-30T17:51:21;101135.30;;;20.74;66.96
48404;BME280;34202;52.536;6.042;2023-07-30T17:56:21;101138.95;;;20.71;67.37
48404;BME280;34202;52.536;6.042;2023-07-30T18:01:21;101133.16;;;20.63;67.74
48404;BME280;34202;52.536;6.042;2023-07-30T18:06:22;101124.19;;;20.55;67.89
48404;BME280;34202;52.536;6.042;2023-07-30T18:11:24;101129.73;;;20.47;68.16
48404;BME280;34202;52.536;6.042;2023-07-30T18:16:24;101133.14;;;20.39;68.75
48404;BME280;34202;52.536;6.042;2023-07-30T18:21:24;101136.50;;;20.34;69.34
48404;BME280;34202;52.536;6.042;2023-07-30T18:26:25;101133.81;;;20.28;69.85
48404;BME280;34202;52.536;6.042;2023-07-30T18:31:25;101131.13;;;20.23;70.38
48404;BME280;34202;52.536;6.042;2023-07-30T18:36:25;101128.89;;;20.15;70.82
48404;BME280;34202;52.536;6.042;2023-07-30T18:41:26;101131.20;;;20.02;71.07
48404;BME280;34202;52.536;6.042;2023-07-30T18:46:26;101131.88;;;19.90;71.63
48404;BME280;34202;52.536;6.042;2023-07-30T18:51:27;101129.15;;;19.80;72.35
48404;BME280;34202;52.536;6.042;2023-07-30T18:56:27;101122.49;;;19.71;72.97
48404;BME280;34202;52.536;6.042;2023-07-30T19:01:27;101122.02;;;19.62;73.58
48404;BME280;34202;52.536;6.042;2023-07-30T19:06:28;101122.52;;;19.56;74.20
48404;BME280;34202;52.536;6.042;2023-07-30T19:11:29;101125.30;;;19.51;74.83
48404;BME280;34202;52.536;6.042;2023-07-30T19:16:29;101115.63;;;19.42;75.36
48404;BME280;34202;52.536;6.042;2023-07-30T19:21:30;101113.61;;;19.31;75.71
48404;BME280;34202;52.536;6.042;2023-07-30T19:26:30;101112.58;;;19.23;76.35
48404;BME280;34202;52.536;6.042;2023-07-30T19:31:30;101115.42;;;19.15;76.85
48404;BME280;34202;52.536;6.042;2023-07-30T19:36:31;101114.55;;;19.07;77.40
48404;BME280;34202;52.536;6.042;2023-07-30T19:41:31;101119.66;;;19.01;77.95
48404;BME280;34202;52.536;6.042;2023-07-30T19:46:32;101113.61;;;18.95;78.49
48404;BME280;34202;52.536;6.042;2023-07-30T19:51:32;101114.65;;;18.89;78.97
48404;BME280;34202;52.536;6.042;2023-07-30T19:56:33;101109.87;;;18.82;79.29
48404;BME280;34202;52.536;6.042;2023-07-30T20:01:33;101102.17;;;18.78;79.71
48404;BME280;34202;52.536;6.042;2023-07-30T20:06:34;101100.34;;;18.73;80.29
48404;BME280;34202;52.536;6.042;2023-07-30T20:11:34;101093.79;;;18.67;80.75
48404;BME280;34202;52.536;6.042;2023-07-30T20:16:35;101091.48;;;18.60;81.04
48404;BME280;34202;52.536;6.042;2023-07-30T20:21:35;101083.36;;;18.52;81.67
48404;BME280;34202;52.536;6.042;2023-07-30T20:26:36;101074.70;;;18.46;82.07
48404;BME280;34202;52.536;6.042;2023-07-30T20:31:36;101073.96;;;18.39;82.73
48404;BME280;34202;52.536;6.042;2023-07-30T20:36:37;101078.83;;;18.34;83.11
48404;BME280;34202;52.536;6.042;2023-07-30T20:41:38;101082.86;;;18.27;83.65
48404;BME280;34202;52.536;6.042;2023-07-30T20:46:38;101079.27;;;18.22;84.09
48404;BME280;34202;52.536;6.042;2023-07-30T20:51:39;101073.54;;;18.17;84.43
48404;BME280;34202;52.536;6.042;2023-07-30T20:56:39;101074.48;;;18.15;84.89
48404;BME280;34202;52.536;6.042;2023-07-30T21:01:39;101075.81;;;18.10;85.23
48404;BME280;34202;52.536;6.042;2023-07-30T21:06:40;101068.36;;;18.05;85.70
48404;BME280;34202;52.536;6.042;2023-07-30T21:11:41;101069.33;;;18.00;86.08
48404;BME280;34202;52.536;6.042;2023-07-30T21:16:41;101064.67;;;17.94;86.60
48404;BME280;34202;52.536;6.042;2023-07-30T21:21:41;101061.88;;;17.85;87.73
48404;BME280;34202;52.536;6.042;2023-07-30T21:26:42;101057.33;;;17.73;88.77
48404;BME280;34202;52.536;6.042;2023-07-30T21:31:42;101054.88;;;17.63;89.53
48404;BME280;34202;52.536;6.042;2023-07-30T21:36:43;101054.05;;;17.51;89.76
48404;BME280;34202;52.536;6.042;2023-07-30T21:41:43;101052.50;;;17.39;90.26
48404;BME280;34202;52.536;6.042;2023-07-30T21:46:43;101040.02;;;17.30;90.65
48404;BME280;34202;52.536;6.042;2023-07-30T21:51:44;101042.27;;;17.21;90.92
48404;BME280;34202;52.536;6.042;2023-07-30T21:56:44;101038.70;;;17.14;91.40
48404;BME280;34202;52.536;6.042;2023-07-30T22:01:45;101031.81;;;17.06;91.84
48404;BME280;34202;52.536;6.042;2023-07-30T22:06:45;101024.92;;;16.96;92.25
48404;BME280;34202;52.536;6.042;2023-07-30T22:11:45;101016.64;;;16.88;92.75
48404;BME280;34202;52.536;6.042;2023-07-30T22:16:46;101009.02;;;16.80;93.08
48404;BME280;34202;52.536;6.042;2023-07-30T22:21:46;100997.70;;;16.72;93.64
48404;BME280;34202;52.536;6.042;2023-07-30T22:26:48;100993.61;;;16.65;93.85
48404;BME280;34202;52.536;6.042;2023-07-30T22:31:49;100990.02;;;16.59;94.26
48404;BME280;34202;52.536;6.042;2023-07-30T22:36:49;100990.43;;;16.55;94.75
48404;BME280;34202;52.536;6.042;2023-07-30T22:41:50;100990.51;;;16.50;95.07
48404;BME280;34202;52.536;6.042;2023-07-30T22:46:50;100984.61;;;16.45;95.43
48404;BME280;34202;52.536;6.042;2023-07-30T22:51:50;100981.13;;;16.42;95.82
48404;BME280;34202;52.536;6.042;2023-07-30T22:56:51;100979.60;;;16.39;96.24
48404;BME280;34202;52.536;6.042;2023-07-30T23:01:52;100982.66;;;16.35;96.48
48404;BME280;34202;52.536;6.042;2023-07-30T23:06:52;100974.47;;;16.30;96.93
48404;BME280;34202;52.536;6.042;2023-07-30T23:11:52;100973.98;;;16.27;97.33
48404;BME280;34202;52.536;6.042;2023-07-30T23:16:53;100969.50;;;16.21;97.49
48404;BME280;34202;52.536;6.042;2023-07-30T23:21:54;100971.70;;;16.15;97.75
48404;BME280;34202;52.536;6.042;2023-07-30T23:26:54;100971.23;;;16.11;98.18
48404;BME280;34202;52.536;6.042;2023-07-30T23:31:55;100969.51;;;16.09;98.46
48404;BME280;34202;52.536;6.042;2023-07-30T23:36:55;100972.91;;;16.04;98.77
48404;BME280;34202;52.536;6.042;2023-07-30T23:41:55;100970.34;;;15.99;99.18
48404;BME280;34202;52.536;6.042;2023-07-30T23:46:56;100961.45;;;15.95;99.54
48404;BME280;34202;52.536;6.042;2023-07-30T23:51:57;100963.23;;;15.92;99.92
48404;BME280;34202;52.536;6.042;2023-07-30T23:56:57;100957.66;;;15.90;100.00
